Aérodrome :
LOGIN :

S'inscrire | Disclaimer

   EN    FR    IT 

 










Légende :    VFR   VFR Marginal   IFR   IFR Intensif   IFR Très Intensif
Visi : 
Plafond : 
>= 8 km
>= 3000ft
5 à 8 km
1000 à 3000 ft
1500m à 5 km
500 à 1000 ft
800 à 1500m
200 à 500 ft
< 800m
< 200 ft
Symboles :   Orages  Brouillard  Fortes neiges  Fortes précipitations  Vent > 20 kt
SIGMETs :   Divers  Orages  Givrage  Turbulence  Onde Orograph.  Cendres Volcan.







- Altitude de l'aérodrome : 144 ft
- Code IATA : PGF
- Voir les cartes d'approche


LFMP - Perpignan

DERNIER METAR :
  • 131630Z AUTO 09002KT 9999 BKN021 BKN028 BKN062 18/14 Q1027 TEMPO 2000 BR

METARs EXPIRÉS :
  • 131600Z AUTO 00000KT 9999 BKN062 18/13 Q1026 NOSIG
  • 131530Z AUTO 00000KT 9999 FEW023 BKN064 18/13 Q1026 NOSIG
  • 131500Z AUTO VRB03KT 9999 BKN024 BKN030 BKN035 18/13 Q1026 NOSIG
  • 131430Z AUTO VRB03KT 9999 BKN026 BKN062 19/13 Q1026 NOSIG
  • 131400Z AUTO 07003KT 030V100 9999 BKN026 BKN032 BKN066 19/14 Q1026 NOSIG
  • 131330Z AUTO VRB02KT 9999 BKN027 BKN064 19/14 Q1026 NOSIG

TAF TAF LFMP
Valide du 13 à 15h jusqu'au 14 à 15h UTC


131400Z 1315/1415 28006KT 9999 SCT010 BKN035 BKN050
BECMG 1401/1403 09010KT 5000 RA
PROB40
TEMPO 1318/1409 2000 BR
BECMG 1409/1411 12015KT
ATIS : +33 4 68 63 75 12
Pas de NOTAMs connus pour ce terrain.



MET'MAP, la Météo Aéronautique d'un coup d'oeil ! - Copyright ORBIFLY Décembre 2007 - Disclaimer

ORBIFLY MET'MAP TEAM :

Programmation & Développement : Alexandra Zaïnal
Conception & Développement : Baudouin d'Aumeries
Co-Programmation & Développement : Marc-Olivier Méhu
Soutien technique & logistique : Manuel Goepfert

Contact : metmap@orbifly.com




SOURCES & CREDITS :

   NOAA